Time;durP1;ratioP1;P1;durP2;ratioP2;P2;SDS_P1;SDS_P2;PMS_P1;PMS_P2;Temp;Humidity;BMP_temperature;BMP_pressure;BME280_temperature;BME280_humidity;BME280_pressure;Samples;Min_cycle;Max_cycle;Signal;HPM_P1;HPM_P2
2023/08/30 00:01:08;;;;;;;3.78;2.60;;;13.90;99.90;;;;;;4995238;28;20042;-76
2023/08/30 00:03:35;;;;;;;2.97;2.35;;;13.90;99.90;;;;;;4995616;28;20026;-76
2023/08/30 00:06:05;;;;;;;3.85;2.55;;;13.90;99.90;;;;;;5008432;28;20034;-76
2023/08/30 00:08:33;;;;;;;3.25;2.78;;;13.90;99.90;;;;;;4977195;28;20042;-76
2023/08/30 00:10:59;;;;;;;3.50;2.65;;;13.90;99.90;;;;;;4994166;28;20045;-76
2023/08/30 00:13:26;;;;;;;3.63;2.95;;;13.90;99.90;;;;;;5010042;28;20057;-77
2023/08/30 00:15:53;;;;;;;3.97;2.97;;;13.90;99.90;;;;;;4993302;28;20575;-77
2023/08/30 00:18:20;;;;;;;3.92;2.67;;;13.90;99.90;;;;;;4995286;28;20045;-76
2023/08/30 00:20:47;;;;;;;3.15;2.80;;;13.90;99.90;;;;;;5009852;28;20053;-76
2023/08/30 00:23:13;;;;;;;4.07;2.90;;;13.90;99.90;;;;;;4978978;28;20521;-77
2023/08/30 00:25:40;;;;;;;3.05;2.70;;;14.00;99.90;;;;;;5010202;28;20610;-76
2023/08/30 00:28:06;;;;;;;3.70;2.25;;;14.00;99.90;;;;;;4995453;28;20507;-76
2023/08/30 00:30:34;;;;;;;3.40;3.08;;;14.00;99.90;;;;;;5007739;28;20038;-76
2023/08/30 00:33:04;;;;;;;4.28;2.38;;;14.10;99.90;;;;;;4978379;28;20037;-76
2023/08/30 00:35:31;;;;;;;3.35;2.67;;;14.00;99.90;;;;;;4992038;28;20033;-76
2023/08/30 00:37:57;;;;;;;3.25;2.60;;;14.10;99.90;;;;;;4996996;28;23179;-77
2023/08/30 00:40:24;;;;;;;2.80;2.42;;;14.10;99.90;;;;;;5013925;28;20033;-76
2023/08/30 00:42:51;;;;;;;3.25;2.30;;;14.10;99.90;;;;;;5014098;28;20029;-76
2023/08/30 00:45:18;;;;;;;3.10;1.98;;;14.10;99.90;;;;;;5012484;28;20026;-76
2023/08/30 00:47:45;;;;;;;3.22;2.60;;;14.00;99.90;;;;;;5015783;28;20040;-77
2023/08/30 00:50:13;;;;;;;3.60;2.63;;;14.00;99.90;;;;;;5014253;28;20033;-76
2023/08/30 00:52:39;;;;;;;2.97;2.45;;;13.90;99.90;;;;;;4998463;28;20413;-76
2023/08/30 00:55:07;;;;;;;3.13;2.60;;;13.90;99.90;;;;;;5013118;28;20038;-76
2023/08/30 00:57:34;;;;;;;3.72;2.97;;;13.80;99.90;;;;;;5014499;28;20038;-76
2023/08/30 01:00:01;;;;;;;3.17;2.63;;;13.80;99.90;;;;;;4997429;28;20044;-76
2023/08/30 01:02:28;;;;;;;2.88;2.15;;;13.70;99.90;;;;;;5014340;28;20034;-76
2023/08/30 01:04:55;;;;;;;3.78;2.78;;;13.70;99.90;;;;;;4997435;28;20034;-76
2023/08/30 01:07:21;;;;;;;5.55;3.35;;;13.60;99.90;;;;;;5013980;28;20125;-76
2023/08/30 01:09:48;;;;;;;4.07;3.33;;;13.50;99.90;;;;;;5030408;28;20092;-76
2023/08/30 01:12:23;;;;;;;3.55;2.75;;;13.50;99.90;;;;;;5015069;28;20033;-76
2023/08/30 01:15:06;;;;;;;4.45;3.03;;;13.40;99.90;;;;;;4996642;28;20045;-76
2023/08/30 01:17:33;;;;;;;3.15;2.78;;;13.40;99.90;;;;;;4998763;28;20045;-76
2023/08/30 01:20:08;;;;;;;4.38;2.97;;;13.30;99.90;;;;;;4996856;28;20037;-76
2023/08/30 01:22:57;;;;;;;3.30;2.78;;;13.20;99.90;;;;;;5013562;28;20054;-76
2023/08/30 01:25:30;;;;;;;3.63;3.17;;;13.20;99.90;;;;;;5012591;28;20057;-76
2023/08/30 01:27:56;;;;;;;3.33;2.72;;;13.10;99.90;;;;;;5013785;28;20033;-76
2023/08/30 01:30:26;;;;;;;3.67;2.80;;;13.10;99.90;;;;;;4997528;28;20388;-76
2023/08/30 01:32:55;;;;;;;4.05;3.25;;;13.00;99.90;;;;;;4998186;28;20518;-76
2023/08/30 01:35:24;;;;;;;3.92;3.17;;;13.00;99.90;;;;;;4996451;28;20034;-76
2023/08/30 01:37:52;;;;;;;3.65;2.53;;;12.90;99.90;;;;;;4997667;28;20037;-76
2023/08/30 01:40:20;;;;;;;4.05;3.65;;;12.90;99.90;;;;;;4998800;28;20109;-76
2023/08/30 01:42:48;;;;;;;4.88;4.10;;;12.80;99.90;;;;;;4997807;28;20057;-76
2023/08/30 01:45:16;;;;;;;4.72;4.32;;;12.90;99.90;;;;;;4998450;28;20037;-77
2023/08/30 01:47:44;;;;;;;4.30;3.40;;;12.80;99.90;;;;;;4980735;28;20050;-76
2023/08/30 01:50:12;;;;;;;4.15;3.10;;;12.80;99.90;;;;;;4998048;28;20042;-77
2023/08/30 01:52:39;;;;;;;3.25;2.70;;;12.70;99.90;;;;;;5013078;28;20049;-76
2023/08/30 01:55:08;;;;;;;4.32;2.85;;;12.70;99.90;;;;;;5027338;28;20033;-76
2023/08/30 01:57:35;;;;;;;5.38;3.15;;;12.70;99.90;;;;;;4996433;28;20033;-77
2023/08/30 02:00:02;;;;;;;4.40;3.38;;;12.70;99.90;;;;;;4996329;28;20029;-76
2023/08/30 02:02:31;;;;;;;4.32;3.75;;;12.70;99.90;;;;;;4980236;28;20519;-77
2023/08/30 02:04:57;;;;;;;5.20;3.03;;;12.70;99.90;;;;;;5012348;28;20058;-76
2023/08/30 02:08:05;;;;;;;3.45;2.63;;;12.80;99.90;;;;;;5027263;28;20041;-76
2023/08/30 02:10:35;;;;;;;4.18;3.53;;;12.90;99.90;;;;;;4995609;28;20045;-77
2023/08/30 02:13:04;;;;;;;4.55;3.92;;;13.00;99.90;;;;;;4996903;28;20461;-76
2023/08/30 02:15:33;;;;;;;5.28;3.53;;;13.00;99.90;;;;;;5012216;28;20045;-76
2023/08/30 02:18:01;;;;;;;3.75;3.35;;;13.00;99.90;;;;;;5029536;28;20029;-76
2023/08/30 02:20:28;;;;;;;5.38;3.78;;;13.10;99.90;;;;;;4979970;28;20041;-76
2023/08/30 02:22:59;;;;;;;4.10;3.13;;;13.10;99.90;;;;;;4979763;28;20045;-76
2023/08/30 02:25:25;;;;;;;5.28;3.60;;;13.20;99.90;;;;;;4979320;28;20045;-76
2023/08/30 02:27:52;;;;;;;3.75;3.40;;;13.20;99.90;;;;;;4998338;28;20877;-76
2023/08/30 02:30:19;;;;;;;5.25;3.53;;;13.30;99.90;;;;;;4996345;28;20057;-76
2023/08/30 02:32:46;;;;;;;3.92;2.97;;;13.30;99.90;;;;;;5028918;28;20412;-76
2023/08/30 02:35:12;;;;;;;3.95;3.55;;;13.40;99.90;;;;;;5012596;28;20033;-76
2023/08/30 02:37:40;;;;;;;3.95;3.60;;;13.40;99.90;;;;;;5029344;28;20022;-76
2023/08/30 02:40:07;;;;;;;3.83;3.35;;;13.40;99.90;;;;;;4997114;28;20507;-76
2023/08/30 02:42:33;;;;;;;3.65;2.88;;;13.50;99.90;;;;;;5012899;28;20034;-76
2023/08/30 02:44:59;;;;;;;3.53;2.90;;;13.50;99.90;;;;;;4997054;28;20041;-76
2023/08/30 02:47:26;;;;;;;3.80;2.90;;;13.50;99.90;;;;;;5012673;28;20045;-76
2023/08/30 02:49:53;;;;;;;3.80;3.38;;;13.60;99.90;;;;;;4979825;28;20038;-76
2023/08/30 02:52:19;;;;;;;3.55;3.00;;;13.60;99.90;;;;;;5012392;28;20038;-76
2023/08/30 02:54:45;;;;;;;5.13;3.42;;;13.60;99.90;;;;;;4978655;28;20041;-76
2023/08/30 02:57:12;;;;;;;3.65;2.90;;;13.60;99.90;;;;;;4995731;28;20037;-77
2023/08/30 02:59:39;;;;;;;4.53;3.38;;;13.60;99.90;;;;;;5011849;28;20329;-76
2023/08/30 03:02:07;;;;;;;5.65;3.47;;;13.70;99.90;;;;;;5011961;28;20036;-77
2023/08/30 03:04:34;;;;;;;4.55;3.40;;;13.70;99.90;;;;;;4994432;28;20036;-76
2023/08/30 03:07:00;;;;;;;3.78;2.92;;;13.70;99.90;;;;;;4978676;28;20045;-76
2023/08/30 03:09:28;;;;;;;3.42;2.95;;;13.70;99.90;;;;;;4997268;28;20030;-77
2023/08/30 03:11:55;;;;;;;4.05;2.85;;;13.70;99.90;;;;;;4995278;28;20046;-76
2023/08/30 03:14:23;;;;;;;3.85;3.08;;;13.70;99.90;;;;;;4978580;28;20038;-76
2023/08/30 03:16:50;;;;;;;4.18;3.20;;;13.70;99.90;;;;;;5009034;28;20492;-76
2023/08/30 03:19:17;;;;;;;3.17;2.60;;;13.70;99.90;;;;;;4995734;28;20049;-76
2023/08/30 03:21:44;;;;;;;5.32;3.10;;;13.70;99.90;;;;;;4978809;28;20041;-76
2023/08/30 03:24:11;;;;;;;3.38;3.00;;;13.70;99.90;;;;;;5027187;28;20397;-76
2023/08/30 03:26:37;;;;;;;2.92;2.47;;;13.70;99.90;;;;;;5012023;28;20033;-77
2023/08/30 03:29:04;;;;;;;4.18;2.90;;;13.60;99.90;;;;;;5010590;28;20033;-76
2023/08/30 03:31:30;;;;;;;4.80;3.15;;;13.60;99.90;;;;;;5011436;28;20038;-75
2023/08/30 03:33:56;;;;;;;3.45;3.15;;;13.60;99.90;;;;;;5011066;28;20040;-76
2023/08/30 03:36:23;;;;;;;4.03;3.10;;;13.60;99.90;;;;;;5023823;28;20034;-76
2023/08/30 03:38:49;;;;;;;4.35;3.35;;;13.60;99.90;;;;;;4996293;28;20030;-76
2023/08/30 03:41:16;;;;;;;5.53;3.47;;;13.50;99.90;;;;;;5011409;28;20037;-77
2023/08/30 03:43:44;;;;;;;4.57;3.40;;;13.50;99.90;;;;;;4994652;28;20923;-76
2023/08/30 03:46:11;;;;;;;4.28;3.58;;;13.50;99.90;;;;;;4995841;28;20539;-77
2023/08/30 03:48:38;;;;;;;4.13;3.70;;;13.40;99.90;;;;;;5011576;28;20519;-76
2023/08/30 03:51:04;;;;;;;4.95;4.10;;;13.30;99.90;;;;;;4996861;28;20038;-76
2023/08/30 03:53:33;;;;;;;5.70;4.47;;;13.30;99.90;;;;;;5010388;28;20485;-76
2023/08/30 03:55:59;;;;;;;4.47;4.07;;;13.20;99.90;;;;;;5026393;28;22665;-76
2023/08/30 03:58:25;;;;;;;4.32;3.67;;;13.20;99.90;;;;;;4977731;28;20030;-76
2023/08/30 04:00:52;;;;;;;5.32;4.47;;;13.10;99.90;;;;;;4994901;28;20033;-76
2023/08/30 04:03:18;;;;;;;4.82;3.58;;;13.00;99.90;;;;;;4994414;28;20034;-76
2023/08/30 04:05:46;;;;;;;4.55;3.90;;;13.00;99.90;;;;;;4978611;28;20041;-76
2023/08/30 04:08:12;;;;;;;5.30;4.70;;;12.90;99.90;;;;;;4994208;28;20038;-76
2023/08/30 04:10:40;;;;;;;7.28;5.30;;;12.90;99.90;;;;;;4995844;28;20103;-76
2023/08/30 04:13:08;;;;;;;5.53;4.90;;;12.80;99.90;;;;;;5013881;28;20057;-76
2023/08/30 04:15:35;;;;;;;6.78;5.45;;;12.80;99.90;;;;;;5014188;28;20033;-76
2023/08/30 04:18:03;;;;;;;5.78;5.15;;;12.70;99.90;;;;;;5015288;28;20037;-76
2023/08/30 04:20:30;;;;;;;5.60;4.93;;;12.60;99.90;;;;;;5014741;28;20164;-77
2023/08/30 04:22:57;;;;;;;5.90;4.60;;;12.60;99.90;;;;;;4998597;28;20053;-77
2023/08/30 04:25:24;;;;;;;5.68;4.57;;;12.50;99.90;;;;;;4997151;28;20034;-77
2023/08/30 04:27:50;;;;;;;4.57;4.13;;;12.50;99.90;;;;;;5014277;28;20049;-77
2023/08/30 04:30:17;;;;;;;5.85;4.93;;;12.50;99.90;;;;;;5030372;28;20049;-77
2023/08/30 04:32:43;;;;;;;7.30;4.38;;;12.40;99.90;;;;;;4999517;28;20489;-77
2023/08/30 04:35:10;;;;;;;7.07;4.30;;;12.40;99.90;;;;;;4998341;28;20033;-76
2023/08/30 04:37:38;;;;;;;6.35;5.20;;;12.30;99.90;;;;;;4997955;28;20523;-77
2023/08/30 04:40:08;;;;;;;7.35;5.32;;;12.30;99.90;;;;;;4981858;28;20045;-77
2023/08/30 04:42:35;;;;;;;6.00;4.55;;;12.30;99.90;;;;;;4982408;28;20492;-77
2023/08/30 04:45:02;;;;;;;6.07;5.25;;;12.20;99.90;;;;;;5014018;28;20042;-77
2023/08/30 04:47:30;;;;;;;5.43;4.47;;;12.20;99.90;;;;;;4997734;28;20033;-77
2023/08/30 04:49:58;;;;;;;8.10;5.15;;;12.20;99.90;;;;;;4981617;28;20029;-77
2023/08/30 04:52:24;;;;;;;6.03;4.97;;;12.20;99.90;;;;;;5013202;28;20050;-77
2023/08/30 04:54:53;;;;;;;4.82;4.10;;;12.10;99.90;;;;;;4996528;28;20034;-77
2023/08/30 04:57:20;;;;;;;6.38;5.70;;;12.10;99.90;;;;;;4996669;28;20456;-77
2023/08/30 04:59:46;;;;;;;5.90;4.70;;;12.10;99.90;;;;;;4979887;28;20485;-77
2023/08/30 05:02:14;;;;;;;6.45;4.93;;;12.10;99.90;;;;;;5013722;28;20042;-77
2023/08/30 05:05:01;;;;;;;7.28;5.68;;;12.10;99.90;;;;;;4996797;28;20517;-76
2023/08/30 05:07:28;;;;;;;9.23;6.32;;;12.10;99.90;;;;;;4980339;28;20034;-77
2023/08/30 05:09:54;;;;;;;8.68;7.47;;;12.10;99.90;;;;;;4996776;28;20408;-77
2023/08/30 05:12:21;;;;;;;8.63;6.70;;;12.10;99.90;;;;;;5014258;28;20053;-77
2023/08/30 05:14:47;;;;;;;8.60;7.35;;;12.10;99.90;;;;;;4980645;28;20050;-77
2023/08/30 05:17:13;;;;;;;7.45;6.70;;;12.00;99.90;;;;;;4981329;28;20076;-76
2023/08/30 05:19:40;;;;;;;7.22;5.88;;;12.10;99.90;;;;;;4997127;28;20033;-76
2023/08/30 05:22:07;;;;;;;8.10;5.93;;;12.10;99.90;;;;;;4996640;28;20034;-76
2023/08/30 05:24:35;;;;;;;7.78;6.47;;;12.10;99.90;;;;;;5012279;28;20030;-76
2023/08/30 05:27:02;;;;;;;7.00;6.18;;;12.10;99.90;;;;;;4996067;28;20394;-76
2023/08/30 05:29:36;;;;;;;8.32;6.75;;;12.10;99.90;;;;;;5011143;28;20037;-76
2023/08/30 05:32:03;;;;;;;8.57;6.70;;;12.10;99.90;;;;;;5029757;28;20044;-78
2023/08/30 05:34:48;;;;;;;7.20;5.65;;;12.10;99.90;;;;;;4998049;28;20409;-77
2023/08/30 05:37:27;;;;;;;7.85;5.82;;;12.20;99.90;;;;;;5013030;28;20037;-77
2023/08/30 05:40:16;;;;;;;7.85;6.40;;;12.20;99.90;;;;;;4997317;28;20045;-77
2023/08/30 05:42:43;;;;;;;7.05;6.03;;;12.30;99.90;;;;;;5011553;28;20042;-77
2023/08/30 05:45:10;;;;;;;6.50;5.10;;;12.30;99.90;;;;;;5012228;28;20037;-77
2023/08/30 05:47:36;;;;;;;6.35;4.70;;;12.40;99.90;;;;;;4997086;28;20394;-76
2023/08/30 05:50:03;;;;;;;6.22;4.95;;;12.40;99.90;;;;;;4980276;28;20033;-77
2023/08/30 05:52:30;;;;;;;6.45;5.50;;;12.50;99.90;;;;;;5029501;28;20042;-77
2023/08/30 05:54:56;;;;;;;5.88;4.90;;;12.50;99.90;;;;;;4995582;28;20654;-77
2023/08/30 05:57:24;;;;;;;9.20;6.20;;;12.60;99.90;;;;;;5013069;28;20026;-77
2023/08/30 05:59:51;;;;;;;6.35;5.70;;;12.70;99.90;;;;;;5011951;28;20423;-77
2023/08/30 06:02:17;;;;;;;7.50;5.82;;;12.80;99.90;;;;;;5014101;28;20037;-78
2023/08/30 06:04:44;;;;;;;6.75;5.65;;;12.90;99.90;;;;;;5011837;28;20040;-75
2023/08/30 06:07:10;;;;;;;6.25;5.50;;;13.00;99.90;;;;;;4979600;28;20030;-75
2023/08/30 06:09:37;;;;;;;5.93;5.32;;;13.20;99.90;;;;;;5012040;28;20030;-76
2023/08/30 06:12:04;;;;;;;7.03;5.90;;;13.40;99.90;;;;;;4996289;28;20040;-76
2023/08/30 06:14:30;;;;;;;7.88;4.95;;;13.50;99.90;;;;;;5028710;28;20042;-76
2023/08/30 06:16:57;;;;;;;7.57;4.75;;;13.70;99.90;;;;;;4996172;28;20033;-76
2023/08/30 06:19:23;;;;;;;6.45;5.68;;;13.80;99.90;;;;;;4995991;28;20477;-76
2023/08/30 06:21:50;;;;;;;13.95;11.43;;;14.00;99.90;;;;;;4997661;28;20052;-84
2023/08/30 06:24:16;;;;;;;9.55;8.18;;;14.20;99.90;;;;;;4993991;28;20041;-81
2023/08/30 06:26:42;;;;;;;9.15;7.72;;;14.40;99.90;;;;;;4997539;28;21248;-78
2023/08/30 06:29:09;;;;;;;9.18;7.07;;;14.50;99.90;;;;;;5028651;28;20034;-78
2023/08/30 06:31:36;;;;;;;8.77;6.35;;;14.70;99.90;;;;;;5012032;28;20045;-77
2023/08/30 06:34:03;;;;;;;8.63;7.00;;;14.70;99.90;;;;;;4994827;28;20050;-80
2023/08/30 06:36:29;;;;;;;6.97;6.05;;;14.80;99.90;;;;;;4995924;28;20053;-77
2023/08/30 06:38:56;;;;;;;8.23;6.70;;;14.80;99.90;;;;;;5027595;28;20036;-76
2023/08/30 06:41:23;;;;;;;8.27;7.47;;;14.80;99.90;;;;;;5028685;28;20855;-77
2023/08/30 06:43:49;;;;;;;7.88;6.60;;;14.80;99.90;;;;;;4979097;28;20041;-78
2023/08/30 06:46:16;;;;;;;9.43;6.95;;;14.80;99.90;;;;;;4995712;28;20034;-79
2023/08/30 06:48:42;;;;;;;7.70;6.45;;;14.80;99.90;;;;;;5011212;28;20034;-77
2023/08/30 06:51:10;;;;;;;6.63;5.85;;;14.90;99.90;;;;;;4996055;28;20057;-78
2023/08/30 06:53:36;;;;;;;6.97;6.05;;;15.00;99.90;;;;;;4995177;28;20503;-76
2023/08/30 06:56:03;;;;;;;7.28;5.82;;;15.00;99.90;;;;;;5011118;28;20033;-76
2023/08/30 06:58:29;;;;;;;6.13;5.53;;;15.10;99.90;;;;;;4995168;28;20380;-76
2023/08/30 07:00:57;;;;;;;7.20;6.25;;;15.20;99.90;;;;;;4978768;28;20048;-76
2023/08/30 07:03:24;;;;;;;6.75;5.78;;;15.20;99.90;;;;;;4978784;28;20045;-76
2023/08/30 07:05:51;;;;;;;9.32;5.35;;;15.30;99.90;;;;;;4993692;28;20377;-76
2023/08/30 07:08:17;;;;;;;6.28;5.50;;;15.40;99.90;;;;;;4995107;28;20029;-76
2023/08/30 07:10:44;;;;;;;8.48;6.53;;;15.40;99.90;;;;;;4995141;28;20029;-76
2023/08/30 07:13:11;;;;;;;6.53;5.72;;;15.40;99.90;;;;;;4996169;28;20034;-76
2023/08/30 07:15:42;;;;;;;7.50;6.28;;;15.40;99.90;;;;;;5010356;28;20515;-76
2023/08/30 07:18:09;;;;;;;6.18;5.57;;;15.40;99.90;;;;;;5010740;28;20041;-76
2023/08/30 07:20:38;;;;;;;6.90;5.75;;;15.50;99.90;;;;;;4997057;28;20053;-76
2023/08/30 07:23:04;;;;;;;6.35;5.22;;;15.50;99.90;;;;;;5010392;28;20029;-75
2023/08/30 07:25:32;;;;;;;7.25;6.45;;;15.50;99.90;;;;;;4977926;28;20037;-77
2023/08/30 07:28:00;;;;;;;7.32;6.63;;;15.50;99.90;;;;;;5011063;28;20022;-77
2023/08/30 07:30:26;;;;;;;8.88;8.00;;;15.50;99.90;;;;;;5027278;28;20468;-77
2023/08/30 07:32:52;;;;;;;11.88;9.52;;;15.40;99.90;;;;;;4997319;28;20042;-79
2023/08/30 07:35:19;;;;;;;7.72;6.88;;;15.30;99.90;;;;;;4993766;28;20498;-76
2023/08/30 07:37:45;;;;;;;7.53;6.45;;;15.20;99.90;;;;;;4977636;28;20025;-75
2023/08/30 07:40:12;;;;;;;7.78;6.60;;;15.00;99.90;;;;;;5025736;28;20030;-75
2023/08/30 07:42:39;;;;;;;7.47;5.55;;;14.90;99.90;;;;;;4994300;28;20049;-74
2023/08/30 07:45:05;;;;;;;7.22;6.38;;;14.70;99.90;;;;;;5024612;28;20041;-74
2023/08/30 07:47:32;;;;;;;5.88;5.13;;;14.70;99.90;;;;;;4995075;28;20025;-74
2023/08/30 07:49:58;;;;;;;8.30;6.32;;;14.60;99.90;;;;;;4977349;28;20053;-75
2023/08/30 07:52:25;;;;;;;11.38;8.25;;;14.50;99.90;;;;;;4995309;28;20037;-73
2023/08/30 07:54:51;;;;;;;6.63;5.93;;;14.40;99.90;;;;;;5024360;28;20055;-72
2023/08/30 07:57:17;;;;;;;6.60;5.60;;;14.40;99.90;;;;;;4993624;28;20037;-72
2023/08/30 07:59:44;;;;;;;7.93;6.45;;;14.30;99.90;;;;;;5010661;28;20484;-72
2023/08/30 08:02:10;;;;;;;9.75;5.85;;;14.30;99.90;;;;;;4978305;28;20477;-72
2023/08/30 08:04:37;;;;;;;7.80;6.60;;;14.30;99.90;;;;;;4975684;28;20691;-73
2023/08/30 08:07:04;;;;;;;6.15;5.00;;;14.30;99.90;;;;;;4994194;28;20423;-72
2023/08/30 08:09:31;;;;;;;8.55;6.63;;;14.20;99.90;;;;;;4996139;28;20030;-73
2023/08/30 08:11:58;;;;;;;5.45;4.88;;;14.10;99.90;;;;;;5008815;28;20558;-72
2023/08/30 08:14:24;;;;;;;9.80;6.43;;;14.10;99.90;;;;;;4992211;28;20053;-72
2023/08/30 08:16:51;;;;;;;7.60;5.72;;;14.10;99.90;;;;;;4977074;28;20026;-72
2023/08/30 08:19:17;;;;;;;7.88;6.50;;;14.10;99.90;;;;;;5026451;28;20026;-72
2023/08/30 08:21:44;;;;;;;7.88;5.40;;;14.10;99.90;;;;;;4993634;28;20038;-73
2023/08/30 08:24:10;;;;;;;8.07;6.72;;;14.00;99.90;;;;;;4994233;28;20673;-72
2023/08/30 08:26:37;;;;;;;8.25;6.57;;;14.10;99.90;;;;;;5024777;28;20026;-73
2023/08/30 08:29:03;;;;;;;7.40;5.88;;;14.10;99.90;;;;;;5024355;28;20377;-74
2023/08/30 08:31:30;;;;;;;10.88;5.93;;;14.10;99.90;;;;;;4996161;28;20034;-74
2023/08/30 08:34:11;;;;;;;7.85;5.95;;;14.10;99.90;;;;;;4992849;28;20037;-73
2023/08/30 08:36:38;;;;;;;6.45;5.07;;;14.20;99.90;;;;;;4990479;28;20022;-73
2023/08/30 08:39:05;;;;;;;9.13;6.40;;;14.20;99.90;;;;;;5008863;28;20345;-73
2023/08/30 08:41:37;;;;;;;9.18;7.15;;;14.20;99.90;;;;;;5008666;28;20034;-73
2023/08/30 08:44:06;;;;;;;7.67;6.07;;;14.30;99.90;;;;;;5008692;28;20042;-73
2023/08/30 08:46:34;;;;;;;9.70;7.38;;;14.30;99.90;;;;;;5007286;28;20300;-73
2023/08/30 08:49:06;;;;;;;10.77;8.32;;;14.30;99.90;;;;;;4992610;28;20034;-73
2023/08/30 08:51:34;;;;;;;10.52;8.30;;;14.30;99.90;;;;;;5007113;28;20381;-73
2023/08/30 08:54:03;;;;;;;10.93;7.45;;;14.30;99.90;;;;;;4976674;28;20038;-74
2023/08/30 08:56:36;;;;;;;12.45;8.68;;;14.30;99.90;;;;;;5006107;28;20471;-73
2023/08/30 08:59:04;;;;;;;9.10;7.45;;;14.30;99.90;;;;;;4995261;28;20411;-74
2023/08/30 09:01:33;;;;;;;10.48;9.38;;;14.30;99.90;;;;;;4994005;28;20380;-75
2023/08/30 09:04:00;;;;;;;11.90;10.13;;;14.30;99.90;;;;;;4994992;28;20461;-75
2023/08/30 09:06:29;;;;;;;10.98;8.80;;;14.30;99.90;;;;;;4995385;28;20033;-74
2023/08/30 09:08:55;;;;;;;10.82;9.60;;;14.30;99.90;;;;;;4994350;28;20421;-74
2023/08/30 09:11:22;;;;;;;12.13;10.60;;;14.30;99.90;;;;;;4997008;28;20033;-74
2023/08/30 09:13:48;;;;;;;11.95;10.75;;;14.30;99.90;;;;;;4996376;28;20476;-74
2023/08/30 09:16:15;;;;;;;12.15;9.98;;;14.30;99.90;;;;;;4995948;28;20106;-75
2023/08/30 09:18:42;;;;;;;11.45;10.30;;;14.30;99.90;;;;;;5028455;28;20034;-75
2023/08/30 09:21:09;;;;;;;13.57;10.93;;;14.30;99.90;;;;;;5029880;28;20045;-74
2023/08/30 09:23:37;;;;;;;19.00;14.45;;;14.30;99.90;;;;;;5027723;28;20119;-74
2023/08/30 09:26:04;;;;;;;17.55;14.40;;;14.30;99.90;;;;;;4978483;28;20439;-75
2023/08/30 09:28:34;;;;;;;9.88;8.85;;;14.30;99.90;;;;;;4978830;28;20052;-74
2023/08/30 09:31:00;;;;;;;15.60;13.43;;;14.30;99.90;;;;;;5009615;28;20042;-74
2023/08/30 09:33:32;;;;;;;15.13;11.73;;;14.40;99.90;;;;;;4978817;28;20054;-75
2023/08/30 09:35:59;;;;;;;17.97;15.20;;;14.30;99.90;;;;;;5011896;28;20033;-74
2023/08/30 09:38:25;;;;;;;15.98;13.65;;;14.40;99.90;;;;;;5026718;28;20388;-75
2023/08/30 09:41:02;;;;;;;14.90;13.27;;;14.40;99.90;;;;;;4980140;28;20645;-75
2023/08/30 09:43:29;;;;;;;18.50;15.57;;;14.40;99.90;;;;;;4979823;28;20049;-74
2023/08/30 09:45:55;;;;;;;12.73;10.93;;;14.40;99.90;;;;;;4995214;28;20037;-75
2023/08/30 09:48:23;;;;;;;16.73;14.90;;;14.50;99.90;;;;;;5010365;28;20489;-74
2023/08/30 09:50:54;;;;;;;13.80;11.90;;;14.50;99.90;;;;;;4994663;28;20030;-74
2023/08/30 09:53:24;;;;;;;12.05;10.85;;;14.50;99.90;;;;;;4994923;28;20038;-75
2023/08/30 09:55:51;;;;;;;12.95;10.60;;;14.50;99.90;;;;;;4976818;28;20433;-74
2023/08/30 09:58:19;;;;;;;11.90;10.73;;;14.50;99.90;;;;;;4978821;28;20488;-74
2023/08/30 10:00:46;;;;;;;11.27;10.00;;;14.60;99.90;;;;;;4978279;28;20038;-75
2023/08/30 10:03:13;;;;;;;11.70;10.50;;;14.70;99.90;;;;;;4995562;28;20033;-74
2023/08/30 10:05:40;;;;;;;11.77;10.57;;;14.80;99.90;;;;;;4994474;28;20465;-75
2023/08/30 10:08:09;;;;;;;12.32;10.45;;;14.80;99.90;;;;;;4994848;28;20060;-75
2023/08/30 10:10:37;;;;;;;11.75;10.55;;;14.90;99.90;;;;;;4978081;28;20032;-75
2023/08/30 10:13:05;;;;;;;11.43;9.65;;;15.00;99.90;;;;;;5028986;28;20034;-75
2023/08/30 10:15:35;;;;;;;11.25;9.75;;;15.00;99.90;;;;;;4994516;28;20042;-74
2023/08/30 10:18:06;;;;;;;9.45;8.45;;;15.10;99.90;;;;;;4977141;28;20453;-75
2023/08/30 10:20:32;;;;;;;12.13;10.73;;;15.10;99.90;;;;;;4995212;28;20034;-75
2023/08/30 10:23:00;;;;;;;10.60;9.50;;;15.20;99.90;;;;;;4994674;28;20041;-75
2023/08/30 10:25:30;;;;;;;12.00;9.57;;;15.20;99.90;;;;;;4977018;28;20480;-76
2023/08/30 10:27:57;;;;;;;13.10;11.55;;;15.30;99.90;;;;;;4992115;28;20349;-75
2023/08/30 10:30:25;;;;;;;11.88;10.68;;;15.40;99.90;;;;;;5010675;28;20034;-74
2023/08/30 10:32:51;;;;;;;14.43;12.15;;;15.40;99.90;;;;;;5027589;28;20053;-74
2023/08/30 10:35:18;;;;;;;12.50;11.00;;;15.50;99.90;;;;;;4993394;28;20061;-74
2023/08/30 10:37:56;;;;;;;12.07;10.95;;;15.60;99.90;;;;;;4994429;28;20045;-74
2023/08/30 10:40:23;;;;;;;10.27;9.27;;;15.60;99.90;;;;;;4995017;28;20032;-74
2023/08/30 10:43:00;;;;;;;10.93;9.82;;;15.70;99.90;;;;;;4995387;28;20038;-74
2023/08/30 10:45:27;;;;;;;13.43;11.90;;;15.90;99.90;;;;;;5009008;28;20053;-74
2023/08/30 10:47:59;;;;;;;13.05;11.52;;;16.00;99.90;;;;;;5010155;28;20811;-74
2023/08/30 10:50:31;;;;;;;13.00;11.68;;;16.10;99.90;;;;;;5011137;28;20131;-74
2023/08/30 10:52:58;;;;;;;12.35;11.10;;;16.20;99.90;;;;;;4993588;28;20042;-74
2023/08/30 10:55:25;;;;;;;11.88;10.77;;;16.20;99.90;;;;;;5009849;28;20033;-74
2023/08/30 10:58:04;;;;;;;11.30;10.20;;;16.10;99.90;;;;;;5009217;28;20034;-74
2023/08/30 11:00:31;;;;;;;12.07;10.88;;;16.20;99.90;;;;;;5027366;28;20030;-74
2023/08/30 11:02:57;;;;;;;11.52;10.35;;;16.20;99.90;;;;;;5009711;28;20034;-74
2023/08/30 11:05:26;;;;;;;12.85;11.30;;;16.30;99.90;;;;;;4981318;28;20041;-74
2023/08/30 11:07:52;;;;;;;12.85;11.65;;;16.30;99.90;;;;;;5010662;28;20625;-74
2023/08/30 11:10:20;;;;;;;12.88;11.57;;;16.30;99.90;;;;;;4995060;28;20662;-74
2023/08/30 11:12:49;;;;;;;13.63;12.23;;;16.30;99.90;;;;;;5010748;28;20034;-73
2023/08/30 11:15:16;;;;;;;12.57;11.38;;;16.40;99.90;;;;;;5008707;28;20038;-74
2023/08/30 11:17:43;;;;;;;14.95;13.45;;;16.70;99.90;;;;;;4976701;28;20053;-75
2023/08/30 11:20:12;;;;;;;12.00;10.98;;;17.20;99.90;;;;;;5009203;28;20030;-74
2023/08/30 11:22:43;;;;;;;12.75;11.60;;;17.50;99.90;;;;;;5010601;28;20480;-74
2023/08/30 11:25:11;;;;;;;12.98;11.88;;;17.40;99.90;;;;;;4976376;28;20503;-74
2023/08/30 11:27:38;;;;;;;13.10;12.00;;;17.30;99.90;;;;;;5007491;28;20041;-74
2023/08/30 11:30:09;;;;;;;15.95;14.45;;;17.20;99.90;;;;;;4977283;28;20037;-75
2023/08/30 11:32:40;;;;;;;16.05;14.55;;;17.20;99.90;;;;;;5010341;28;20038;-74
2023/08/30 11:35:07;;;;;;;14.40;13.20;;;17.30;99.90;;;;;;5024636;28;20026;-77
2023/08/30 11:37:33;;;;;;;14.80;13.43;;;17.20;99.90;;;;;;4994519;28;20045;-77
2023/08/30 11:40:02;;;;;;;13.20;12.05;;;17.20;99.90;;;;;;4992665;28;20033;-77
2023/08/30 11:42:30;;;;;;;12.63;11.48;;;17.20;99.90;;;;;;4977817;28;20041;-77
2023/08/30 11:44:59;;;;;;;12.10;10.90;;;17.20;99.90;;;;;;4991044;28;20037;-77
2023/08/30 11:47:26;;;;;;;18.25;16.55;;;17.30;99.90;;;;;;4976439;28;20030;-77
2023/08/30 11:49:56;;;;;;;13.45;12.25;;;17.40;99.90;;;;;;4994603;28;21014;-76
2023/08/30 11:52:27;;;;;;;11.95;10.85;;;17.60;99.90;;;;;;5007813;28;20042;-76
2023/08/30 11:54:54;;;;;;;10.73;9.80;;;18.10;99.90;;;;;;4991956;28;20029;-77
2023/08/30 11:57:21;;;;;;;10.75;8.45;;;18.80;99.90;;;;;;4992417;28;20044;-77
2023/08/30 11:59:47;;;;;;;6.78;6.18;;;19.50;99.90;;;;;;5008435;28;20448;-76
2023/08/30 12:02:16;;;;;;;5.32;4.50;;;19.90;99.90;;;;;;5027561;28;20043;-76
2023/08/30 12:04:46;;;;;;;5.28;4.75;;;20.20;99.90;;;;;;4976626;28;20026;-76
2023/08/30 12:07:26;;;;;;;7.43;5.15;;;20.80;99.90;;;;;;5009388;28;21070;-76
2023/08/30 12:09:53;;;;;;;4.80;3.47;;;21.70;99.90;;;;;;4992639;28;20030;-76
2023/08/30 12:12:24;;;;;;;5.65;3.70;;;22.40;99.90;;;;;;4992306;28;20587;-77
2023/08/30 12:14:57;;;;;;;5.68;3.90;;;22.70;99.90;;;;;;4992495;28;20065;-76
2023/08/30 12:17:24;;;;;;;4.88;3.10;;;22.40;99.90;;;;;;4975987;28;21082;-76
2023/08/30 12:19:57;;;;;;;4.63;3.08;;;21.80;99.90;;;;;;5024427;28;20030;-76
2023/08/30 12:22:41;;;;;;;3.38;2.28;;;21.20;99.90;;;;;;5024777;28;20074;-76
2023/08/30 12:25:34;;;;;;;3.70;2.03;;;20.60;99.90;;;;;;4975247;28;20034;-76
2023/08/30 12:28:00;;;;;;;4.57;2.20;;;20.20;99.90;;;;;;4991690;28;20042;-76
2023/08/30 12:30:27;;;;;;;5.78;3.30;;;19.80;99.90;;;;;;5026478;28;20038;-79
2023/08/30 12:33:03;;;;;;;4.45;2.75;;;19.50;99.90;;;;;;4995384;28;20041;-76
2023/08/30 12:35:30;;;;;;;5.47;2.42;;;19.30;99.90;;;;;;5033560;28;20468;-78
2023/08/30 12:37:56;;;;;;;8.05;3.97;;;19.20;99.90;;;;;;5009779;28;20029;-77
2023/08/30 12:40:23;;;;;;;4.63;3.00;;;19.30;99.90;;;;;;5009829;28;20373;-77
2023/08/30 12:42:49;;;;;;;5.55;2.63;;;19.40;99.90;;;;;;5042307;28;20056;-76
2023/08/30 12:45:16;;;;;;;6.93;2.40;;;19.60;99.90;;;;;;5040059;28;20033;-75
2023/08/30 12:47:42;;;;;;;4.63;2.08;;;19.80;99.90;;;;;;4983926;28;20049;-76